createdAt,value
2023-09-16T00:02:13.206Z,101798.53
2023-09-16T00:07:16.057Z,101794.03
2023-09-16T00:12:18.572Z,101795.09
2023-09-16T00:17:21.189Z,101799.44
2023-09-16T00:22:23.782Z,101801.66
2023-09-16T00:27:27.637Z,101802.56
2023-09-16T00:32:30.265Z,101810.88
2023-09-16T00:37:33.132Z,101808.28
2023-09-16T00:42:39.819Z,101815.78
2023-09-16T00:47:43.537Z,101814.31
2023-09-16T00:52:54.190Z,101825.22
2023-09-16T00:57:59.719Z,101829.28
2023-09-16T01:08:24.174Z,101832.59
2023-09-16T01:13:27.256Z,101824.53
2023-09-16T01:18:36.551Z,101826.38
2023-09-16T01:23:39.608Z,101812.84
2023-09-16T01:28:42.043Z,101809.44
2023-09-16T01:33:53.124Z,101815.56
2023-09-16T01:39:02.060Z,101822.31
2023-09-16T01:44:05.777Z,101823.38
2023-09-16T01:49:08.334Z,101820.28
2023-09-16T01:54:12.085Z,101819.50
2023-09-16T01:59:14.754Z,101815.69
2023-09-16T02:04:18.321Z,101820.34
2023-09-16T02:09:21.724Z,101814.22
2023-09-16T02:14:25.026Z,101833.19
2023-09-16T02:19:28.448Z,101838.00
2023-09-16T02:24:32.395Z,101843.91
2023-09-16T02:29:35.624Z,101837.03
2023-09-16T02:34:38.240Z,101840.88
2023-09-16T02:39:41.036Z,101837.25
2023-09-16T02:44:43.874Z,101838.38
2023-09-16T02:49:46.487Z,101848.97
2023-09-16T02:54:49.055Z,101849.88
2023-09-16T02:59:53.525Z,101847.19
2023-09-16T03:04:58.019Z,101861.03
2023-09-16T03:10:01.386Z,101849.00
2023-09-16T03:15:06.530Z,101842.91
2023-09-16T03:20:09.621Z,101848.81
2023-09-16T03:25:12.621Z,101851.31
2023-09-16T03:30:19.200Z,101853.47
2023-09-16T03:35:26.192Z,101851.31
2023-09-16T03:40:29.545Z,101844.22
2023-09-16T03:45:32.262Z,101857.53
2023-09-16T03:50:37.559Z,101852.34
2023-09-16T03:55:40.390Z,101846.22
2023-09-16T04:00:43.081Z,101852.44
2023-09-16T04:05:45.670Z,101858.75
2023-09-16T04:10:49.509Z,101848.66
2023-09-16T04:15:52.395Z,101855.94
2023-09-16T04:20:56.921Z,101851.97
2023-09-16T04:26:01.922Z,101854.78
2023-09-16T04:31:05.963Z,101850.50
2023-09-16T04:36:12.135Z,101864.75
2023-09-16T04:41:15.485Z,101862.28
2023-09-16T04:46:19.912Z,101861.50
2023-09-16T04:51:23.288Z,101862.88
2023-09-16T04:56:25.986Z,101863.38
2023-09-16T05:01:33.152Z,101857.97
2023-09-16T05:06:35.811Z,101859.00
2023-09-16T05:11:38.737Z,101852.28
2023-09-16T05:16:41.324Z,101859.97
2023-09-16T05:21:45.321Z,101870.09
2023-09-16T05:26:48.750Z,101872.63
2023-09-16T05:31:51.492Z,101865.41
2023-09-16T05:36:54.313Z,101867.09
2023-09-16T05:41:56.837Z,101866.63
2023-09-16T05:47:02.016Z,101855.84
2023-09-16T05:52:06.392Z,101862.84
2023-09-16T05:57:08.915Z,101859.91
2023-09-16T06:02:12.115Z,101866.66
2023-09-16T06:07:14.826Z,101864.16
2023-09-16T06:12:17.474Z,101864.94
2023-09-16T06:17:21.015Z,101862.31
2023-09-16T06:22:25.127Z,101856.63
2023-09-16T06:27:27.780Z,101863.34
2023-09-16T06:32:30.817Z,101856.25
2023-09-16T06:37:33.526Z,101856.25
2023-09-16T06:42:36.599Z,101864.56
2023-09-16T06:47:39.145Z,101861.16
2023-09-16T06:52:41.633Z,101855.59
2023-09-16T06:57:45.242Z,101856.31
2023-09-16T07:02:47.737Z,101861.22
2023-09-16T07:07:50.248Z,101850.19
2023-09-16T07:12:52.879Z,101859.31
2023-09-16T07:17:55.360Z,101852.31
2023-09-16T07:22:58.482Z,101848.22
2023-09-16T07:28:02.387Z,101842.81
2023-09-16T07:33:05.104Z,101845.06
2023-09-16T07:38:07.925Z,101842.94
2023-09-16T07:43:12.655Z,101837.06
2023-09-16T07:48:16.151Z,101831.47
2023-09-16T07:53:19.058Z,101829.22
2023-09-16T07:58:21.647Z,101825.38
2023-09-16T08:03:24.409Z,101827.56
2023-09-16T08:08:27.037Z,101823.56
2023-09-16T08:13:29.548Z,101819.91
2023-09-16T08:18:31.990Z,101819.09
2023-09-16T08:23:34.557Z,101816.25
2023-09-16T08:28:39.825Z,101806.38
2023-09-16T08:33:42.402Z,101818.69
2023-09-16T08:38:45.056Z,101814.94
2023-09-16T08:43:49.446Z,101818.69
2023-09-16T08:48:56.883Z,101806.94
2023-09-16T08:54:02.177Z,101807.56
2023-09-16T08:59:04.803Z,101807.41
2023-09-16T09:04:07.693Z,101811.16
2023-09-16T09:09:10.383Z,101801.16
2023-09-16T09:14:13.954Z,101790.50
2023-09-16T09:19:17.006Z,101785.34
2023-09-16T09:24:19.353Z,101791.38
2023-09-16T09:29:23.478Z,101785.41
2023-09-16T09:34:30.049Z,101782.22
2023-09-16T09:39:32.869Z,101780.97
2023-09-16T09:44:35.963Z,101776.88
2023-09-16T09:49:38.538Z,101780.53
2023-09-16T09:54:41.468Z,101769.63
2023-09-16T09:59:44.041Z,101769.69
2023-09-16T10:04:48.553Z,101768.53
2023-09-16T10:09:52.032Z,101765.09
2023-09-16T10:14:54.997Z,101769.66
2023-09-16T10:19:57.570Z,101760.97
2023-09-16T10:25:00.820Z,101764.75
2023-09-16T10:30:04.333Z,101771.53
2023-09-16T10:35:08.168Z,101765.47
2023-09-16T10:40:12.111Z,101757.59
2023-09-16T10:45:17.196Z,101760.59
2023-09-16T10:50:22.881Z,101751.63
2023-09-16T10:55:25.776Z,101740.78
2023-09-16T11:00:32.821Z,101742.06
2023-09-16T11:05:37.981Z,101738.22
2023-09-16T11:10:42.106Z,101741.03
2023-09-16T11:15:48.074Z,101735.47
2023-09-16T11:20:52.173Z,101731.41
2023-09-16T11:25:57.932Z,101733.34
2023-09-16T11:31:03.555Z,101735.16
2023-09-16T11:36:17.115Z,101733.47
2023-09-16T11:41:20.086Z,101736.66
2023-09-16T11:46:22.831Z,101738.94
2023-09-16T11:51:27.077Z,101733.38
2023-09-16T11:56:32.622Z,101729.91
2023-09-16T12:01:38.119Z,101728.59
2023-09-16T12:06:40.964Z,101720.34
2023-09-16T12:11:45.165Z,101716.09
2023-09-16T12:16:48.578Z,101714.88
2023-09-16T12:21:51.646Z,101708.91
2023-09-16T12:26:54.318Z,101708.84
2023-09-16T12:32:12.154Z,101708.91
2023-09-16T12:37:17.431Z,101714.22
2023-09-16T12:42:20.071Z,101704.34
2023-09-16T12:47:23.121Z,101711.25
2023-09-16T12:52:25.983Z,101702.94
2023-09-16T12:57:28.518Z,101702.75
2023-09-16T13:02:37.053Z,101703.28
2023-09-16T13:07:39.968Z,101701.09
2023-09-16T13:12:45.606Z,101704.31
2023-09-16T13:17:59.418Z,101710.91
2023-09-16T13:23:01.935Z,101708.09
2023-09-16T13:28:11.179Z,101705.88
2023-09-16T13:33:14.108Z,101709.63
2023-09-16T13:38:16.636Z,101708.88
2023-09-16T13:43:19.772Z,101710.63
2023-09-16T13:48:25.000Z,101719.38
2023-09-16T13:53:28.173Z,101713.63
2023-09-16T13:58:30.772Z,101714.31
2023-09-16T14:03:33.840Z,101718.25
2023-09-16T14:08:36.606Z,101715.31
2023-09-16T14:13:39.469Z,101718.09
2023-09-16T14:18:41.998Z,101721.88
2023-09-16T14:23:44.479Z,101719.06
2023-09-16T14:28:46.999Z,101716.06
2023-09-16T14:33:49.497Z,101713.78
2023-09-16T14:38:54.135Z,101710.28
2023-09-16T14:43:56.758Z,101713.69
2023-09-16T14:48:59.303Z,101699.94
2023-09-16T14:54:04.092Z,101707.00
2023-09-16T14:59:06.719Z,101704.25
2023-09-16T15:04:09.275Z,101704.88
2023-09-16T15:09:11.799Z,101695.34
2023-09-16T15:14:15.028Z,101695.06
2023-09-16T15:19:17.822Z,101690.81
2023-09-16T15:24:20.377Z,101702.31
2023-09-16T15:29:23.155Z,101702.00
2023-09-16T15:34:25.747Z,101700.41
2023-09-16T15:39:28.286Z,101703.56
2023-09-16T15:44:30.768Z,101705.25
2023-09-16T15:49:35.587Z,101701.84
2023-09-16T15:54:38.204Z,101705.97
2023-09-16T15:59:40.740Z,101716.75
2023-09-16T16:04:43.301Z,101716.13
2023-09-16T16:09:52.161Z,101728.44
2023-09-16T16:14:54.751Z,101727.25
2023-09-16T16:19:57.536Z,101722.03
2023-09-16T16:25:00.196Z,101730.44
2023-09-16T16:30:07.176Z,101732.69
2023-09-16T16:35:09.928Z,101730.31
2023-09-16T16:40:12.718Z,101737.72
2023-09-16T16:45:15.744Z,101732.66
2023-09-16T16:50:18.403Z,101739.63
2023-09-16T16:55:20.921Z,101726.53
2023-09-16T17:00:23.487Z,101736.44
2023-09-16T17:05:27.438Z,101724.44
2023-09-16T17:10:30.862Z,101733.84
2023-09-16T17:15:33.488Z,101725.25
2023-09-16T17:20:36.316Z,101734.34
2023-09-16T17:25:39.867Z,101737.63
2023-09-16T17:30:43.665Z,101731.22
2023-09-16T17:35:48.067Z,101726.88
2023-09-16T17:40:50.602Z,101731.44
2023-09-16T17:45:53.199Z,101738.00
2023-09-16T17:50:57.165Z,101733.97
2023-09-16T17:56:01.256Z,101734.63
2023-09-16T18:01:05.721Z,101751.63
2023-09-16T18:06:08.538Z,101751.22
2023-09-16T18:11:11.024Z,101749.00
2023-09-16T18:16:13.716Z,101759.78
2023-09-16T18:21:16.322Z,101754.97
2023-09-16T18:26:19.742Z,101756.34
2023-09-16T18:31:23.267Z,101764.38
2023-09-16T18:36:26.023Z,101771.03
2023-09-16T18:41:29.418Z,101772.41
2023-09-16T18:46:33.846Z,101774.09
2023-09-16T18:51:36.529Z,101773.00
2023-09-16T18:56:39.056Z,101773.16
2023-09-16T19:01:41.639Z,101777.16
2023-09-16T19:06:44.566Z,101788.94
2023-09-16T19:11:48.447Z,101780.69
2023-09-16T19:16:51.166Z,101775.91
2023-09-16T19:21:53.765Z,101790.97
2023-09-16T19:26:56.211Z,101790.16
2023-09-16T19:32:00.855Z,101793.31
2023-09-16T19:37:03.701Z,101783.88
2023-09-16T19:42:06.952Z,101781.72
2023-09-16T19:47:09.611Z,101779.56
2023-09-16T19:52:12.238Z,101789.38
2023-09-16T19:57:14.785Z,101783.63
2023-09-16T20:02:17.442Z,101793.09
2023-09-16T20:07:20.401Z,101799.09
2023-09-16T20:12:22.953Z,101796.13
2023-09-16T20:17:25.675Z,101797.47
2023-09-16T20:22:28.194Z,101797.78
2023-09-16T20:27:31.158Z,101790.84
2023-09-16T20:32:33.776Z,101791.34
2023-09-16T20:37:38.086Z,101792.97
2023-09-16T20:42:40.924Z,101790.50
2023-09-16T20:47:43.450Z,101798.44
2023-09-16T20:52:45.923Z,101802.41
2023-09-16T20:57:48.337Z,101795.38
2023-09-16T21:02:51.011Z,101800.69
2023-09-16T21:07:53.733Z,101805.63
2023-09-16T21:12:57.097Z,101806.47
2023-09-16T21:17:59.642Z,101807.81
2023-09-16T21:23:02.145Z,101808.47
2023-09-16T21:28:05.132Z,101799.38
2023-09-16T21:33:08.926Z,101804.06
2023-09-16T21:38:11.509Z,101802.06
2023-09-16T21:43:15.192Z,101815.44
2023-09-16T21:48:18.064Z,101813.28
2023-09-16T21:53:21.039Z,101814.44
2023-09-16T21:58:23.630Z,101817.63
2023-09-16T22:11:01.652Z,101818.31
2023-09-16T22:16:04.242Z,101819.16
2023-09-16T22:21:10.006Z,101816.34
2023-09-16T22:26:12.502Z,101814.19
2023-09-16T22:31:19.044Z,101816.31
2023-09-16T22:36:21.669Z,101806.50
2023-09-16T22:41:24.337Z,101825.03
2023-09-16T22:46:27.400Z,101825.72
2023-09-16T22:51:30.036Z,101826.84
2023-09-16T22:56:36.075Z,101820.66
2023-09-16T23:01:39.154Z,101823.28
2023-09-16T23:06:41.728Z,101834.00
2023-09-16T23:11:44.252Z,101833.25
2023-09-16T23:16:46.886Z,101834.63
2023-09-16T23:21:49.689Z,101840.47
2023-09-16T23:26:52.204Z,101836.88
2023-09-16T23:31:54.741Z,101841.78
2023-09-16T23:36:57.364Z,101847.09
2023-09-16T23:42:00.126Z,101846.97
2023-09-16T23:47:02.745Z,101846.25
2023-09-16T23:52:05.766Z,101851.41
2023-09-16T23:57:08.982Z,101854.25
